Aviation Digital Data Service (ADDS)

Output produced by METARs form (0516 UTC 21 January 2019)
found at http://www.aviationweather.gov/metar/data/
 
METAR text: TNCB 210455Z AUTO 09012KT 9999 FEW019/// 26/21 Q1014
Conditions at: TNCB (BONAIRE/FLAMINGO, AN) observed 0455 UTC 21 January 2019
Temperature: 26.0°C (79°F)
Dewpoint: 21.0°C (70°F) [RH = 74%]
Pressure (altimeter): 29.94 inches Hg (1014.0 mb)
Winds: from the E (90 degrees) at 14 MPH (12 knots; 6.2 m/s)
Visibility: 6 or more miles (10+ km)
Ceiling: at least 12,000 feet AGL
Clouds: few clouds at 1900 feet AGL
Weather: no significant weather observed at this time

METAR text: TNCB 210355Z AUTO 09012KT 9999 NCD 26/21 Q1015
Conditions at: TNCB (BONAIRE/FLAMINGO, AN) observed 0355 UTC 21 January 2019
Temperature: 26.0°C (79°F)
Dewpoint: 21.0°C (70°F) [RH = 74%]
Pressure (altimeter): 29.97 inches Hg (1015.0 mb)
Winds: from the E (90 degrees) at 14 MPH (12 knots; 6.2 m/s)
Visibility: 6 or more miles (10+ km)
Ceiling: at least 12,000 feet AGL
Clouds: sky clear below 12,000 feet AGL
Weather: no significant weather observed at this time

METAR text: TNCB 210255Z AUTO 08014KT 050V110 9999 NCD 26/21 Q1014
Conditions at: TNCB (BONAIRE/FLAMINGO, AN) observed 0255 UTC 21 January 2019
Temperature: 26.0°C (79°F)
Dewpoint: 21.0°C (70°F) [RH = 74%]
Pressure (altimeter): 29.94 inches Hg (1014.0 mb)
Winds: from the E (80 degrees) at 16 MPH (14 knots; 7.2 m/s)
Visibility: 6 or more miles (10+ km)
Ceiling: at least 12,000 feet AGL
Clouds: sky clear below 12,000 feet AGL
Weather: no significant weather observed at this time

METAR text: TNCB 210155Z AUTO 08014KT 050V110 9999 NCD 26/21 Q1014
Conditions at: TNCB (BONAIRE/FLAMINGO, AN) observed 0155 UTC 21 January 2019
Temperature: 26.0°C (79°F)
Dewpoint: 21.0°C (70°F) [RH = 74%]
Pressure (altimeter): 29.94 inches Hg (1014.0 mb)
Winds: from the E (80 degrees) at 16 MPH (14 knots; 7.2 m/s)
Visibility: 6 or more miles (10+ km)
Ceiling: at least 12,000 feet AGL
Clouds: sky clear below 12,000 feet AGL
Weather: no significant weather observed at this time

METAR text: TNCB 210055Z AUTO 08013KT 050V110 9999 NCD 26/21 Q1014
Conditions at: TNCB (BONAIRE/FLAMINGO, AN) observed 0055 UTC 21 January 2019
Temperature: 26.0°C (79°F)
Dewpoint: 21.0°C (70°F) [RH = 74%]
Pressure (altimeter): 29.94 inches Hg (1014.0 mb)
Winds: from the E (80 degrees) at 15 MPH (13 knots; 6.7 m/s)
Visibility: 6 or more miles (10+ km)
Ceiling: at least 12,000 feet AGL
Clouds: sky clear below 12,000 feet AGL
Weather: no significant weather observed at this time

METAR text: TNCB 202355Z 08012KT CAVOK 26/21 Q1013
Conditions at: TNCB (BONAIRE/FLAMINGO, AN) observed 2355 UTC 20 January 2019
Temperature: 26.0°C (79°F)
Dewpoint: 21.0°C (70°F) [RH = 74%]
Pressure (altimeter): 29.91 inches Hg (1013.0 mb)
Winds: from the E (80 degrees) at 14 MPH (12 knots; 6.2 m/s)
Visibility: 6 or more miles (10+ km)
Ceiling: ceiling and visibility are OK
Clouds: unknown
Weather: no significant weather observed at this time

METAR text: TNCB 202255Z AUTO 08014KT 050V110 9999 NCD 26/21 Q1013
Conditions at: TNCB (BONAIRE/FLAMINGO, AN) observed 2255 UTC 20 January 2019
Temperature: 26.0°C (79°F)
Dewpoint: 21.0°C (70°F) [RH = 74%]
Pressure (altimeter): 29.91 inches Hg (1013.0 mb)
Winds: from the E (80 degrees) at 16 MPH (14 knots; 7.2 m/s)
Visibility: 6 or more miles (10+ km)
Ceiling: at least 12,000 feet AGL
Clouds: sky clear below 12,000 feet AGL
Weather: no significant weather observed at this time

METAR text: TNCB 202155Z AUTO 09018KT 9999 NCD 27/20 Q1012
Conditions at: TNCB (BONAIRE/FLAMINGO, AN) observed 2155 UTC 20 January 2019
Temperature: 27.0°C (81°F)
Dewpoint: 20.0°C (68°F) [RH = 66%]
Pressure (altimeter): 29.88 inches Hg (1012.0 mb)
Winds: from the E (90 degrees) at 21 MPH (18 knots; 9.3 m/s)
Visibility: 6 or more miles (10+ km)
Ceiling: at least 12,000 feet AGL
Clouds: sky clear below 12,000 feet AGL
Weather: no significant weather observed at this time

METAR text: TNCB 202055Z 10018KT 070V130 9999 FEW023 27/21 Q1012
Conditions at: TNCB (BONAIRE/FLAMINGO, AN) observed 2055 UTC 20 January 2019
Temperature: 27.0°C (81°F)
Dewpoint: 21.0°C (70°F) [RH = 70%]
Pressure (altimeter): 29.88 inches Hg (1012.0 mb)
Winds: from the E (100 degrees) at 21 MPH (18 knots; 9.3 m/s)
Visibility: 6 or more miles (10+ km)
Ceiling: at least 12,000 feet AGL
Clouds: few clouds at 2300 feet AGL
Weather: no significant weather observed at this time

METAR text: TNCB 201955Z AUTO 10016KT 070V140 9999 SCT021/// 28/21 Q1012
Conditions at: TNCB (BONAIRE/FLAMINGO, AN) observed 1955 UTC 20 January 2019
Temperature: 28.0°C (82°F)
Dewpoint: 21.0°C (70°F) [RH = 66%]
Pressure (altimeter): 29.88 inches Hg (1012.0 mb)
Winds: from the E (100 degrees) at 18 MPH (16 knots; 8.2 m/s)
Visibility: 6 or more miles (10+ km)
Ceiling: at least 12,000 feet AGL
Clouds: scattered clouds at 2100 feet AGL
Weather: no significant weather observed at this time

METAR text: TNCB 201555Z 11015KT 070V160 9999 FEW024 30/21 Q1015
Conditions at: TNCB (BONAIRE/FLAMINGO, AN) observed 1555 UTC 20 January 2019
Temperature: 30.0°C (86°F)
Dewpoint: 21.0°C (70°F) [RH = 59%]
Pressure (altimeter): 29.97 inches Hg (1015.0 mb)
Winds: from the ESE (110 degrees) at 17 MPH (15 knots; 7.7 m/s)
Visibility: 6 or more miles (10+ km)
Ceiling: at least 12,000 feet AGL
Clouds: few clouds at 2400 feet AGL
Weather: no significant weather observed at this time

METAR text: TNCB 201455Z 11016KT 080V160 9999 FEW022 29/21 Q1016
Conditions at: TNCB (BONAIRE/FLAMINGO, AN) observed 1455 UTC 20 January 2019
Temperature: 29.0°C (84°F)
Dewpoint: 21.0°C (70°F) [RH = 62%]
Pressure (altimeter): 30.00 inches Hg (1016.0 mb)
Winds: from the ESE (110 degrees) at 18 MPH (16 knots; 8.2 m/s)
Visibility: 6 or more miles (10+ km)
Ceiling: at least 12,000 feet AGL
Clouds: few clouds at 2200 feet AGL
Weather: no significant weather observed at this time

METAR text: TNCB 201355Z 11018KT 060V150 9999 FEW021 SCT025 28/21 Q1016
Conditions at: TNCB (BONAIRE/FLAMINGO, AN) observed 1355 UTC 20 January 2019
Temperature: 28.0°C (82°F)
Dewpoint: 21.0°C (70°F) [RH = 66%]
Pressure (altimeter): 30.00 inches Hg (1016.0 mb)
Winds: from the ESE (110 degrees) at 21 MPH (18 knots; 9.3 m/s)
Visibility: 6 or more miles (10+ km)
Ceiling: at least 12,000 feet AGL
Clouds: few clouds at 2100 feet AGL
scattered clouds at 2500 feet AGL
Weather: no significant weather observed at this time

METAR text: TNCB 201255Z 11014KT 070V150 9999 SCT021 BKN025 28/21 Q1015
Conditions at: TNCB (BONAIRE/FLAMINGO, AN) observed 1255 UTC 20 January 2019
Temperature: 28.0°C (82°F)
Dewpoint: 21.0°C (70°F) [RH = 66%]
Pressure (altimeter): 29.97 inches Hg (1015.0 mb)
Winds: from the ESE (110 degrees) at 16 MPH (14 knots; 7.2 m/s)
Visibility: 6 or more miles (10+ km)
Ceiling: 2500 feet AGL
Clouds: scattered clouds at 2100 feet AGL
broken clouds at 2500 feet AGL
Weather: no significant weather observed at this time

METAR text: TNCB 201155Z 10015KT 080V140 9999 FEW023 27/21 Q1014
Conditions at: TNCB (BONAIRE/FLAMINGO, AN) observed 1155 UTC 20 January 2019
Temperature: 27.0°C (81°F)
Dewpoint: 21.0°C (70°F) [RH = 70%]
Pressure (altimeter): 29.94 inches Hg (1014.0 mb)
Winds: from the E (100 degrees) at 17 MPH (15 knots; 7.7 m/s)
Visibility: 6 or more miles (10+ km)
Ceiling: at least 12,000 feet AGL
Clouds: few clouds at 2300 feet AGL
Weather: no significant weather observed at this time

METAR text: TNCB 201055Z AUTO 10013KT 9999 FEW020/// 26/21 Q1014
Conditions at: TNCB (BONAIRE/FLAMINGO, AN) observed 1055 UTC 20 January 2019
Temperature: 26.0°C (79°F)
Dewpoint: 21.0°C (70°F) [RH = 74%]
Pressure (altimeter): 29.94 inches Hg (1014.0 mb)
Winds: from the E (100 degrees) at 15 MPH (13 knots; 6.7 m/s)
Visibility: 6 or more miles (10+ km)
Ceiling: at least 12,000 feet AGL
Clouds: few clouds at 2000 feet AGL
Weather: no significant weather observed at this time

METAR text: TNCB 200955Z AUTO 10012KT 070V130 9999 FEW019/// 26/21 Q1013
Conditions at: TNCB (BONAIRE/FLAMINGO, AN) observed 0955 UTC 20 January 2019
Temperature: 26.0°C (79°F)
Dewpoint: 21.0°C (70°F) [RH = 74%]
Pressure (altimeter): 29.91 inches Hg (1013.0 mb)
Winds: from the E (100 degrees) at 14 MPH (12 knots; 6.2 m/s)
Visibility: 6 or more miles (10+ km)
Ceiling: at least 12,000 feet AGL
Clouds: few clouds at 1900 feet AGL
Weather: no significant weather observed at this time

METAR text: TNCB 200855Z AUTO 10014KT 070V130 9999 FEW021/// 26/21 Q1013
Conditions at: TNCB (BONAIRE/FLAMINGO, AN) observed 0855 UTC 20 January 2019
Temperature: 26.0°C (79°F)
Dewpoint: 21.0°C (70°F) [RH = 74%]
Pressure (altimeter): 29.91 inches Hg (1013.0 mb)
Winds: from the E (100 degrees) at 16 MPH (14 knots; 7.2 m/s)
Visibility: 6 or more miles (10+ km)
Ceiling: at least 12,000 feet AGL
Clouds: few clouds at 2100 feet AGL
Weather: no significant weather observed at this time

METAR text: TNCB 200755Z AUTO 09015KT 9999 FEW019/// SCT024/// 26/21 Q1013
Conditions at: TNCB (BONAIRE/FLAMINGO, AN) observed 0755 UTC 20 January 2019
Temperature: 26.0°C (79°F)
Dewpoint: 21.0°C (70°F) [RH = 74%]
Pressure (altimeter): 29.91 inches Hg (1013.0 mb)
Winds: from the E (90 degrees) at 17 MPH (15 knots; 7.7 m/s)
Visibility: 6 or more miles (10+ km)
Ceiling: at least 12,000 feet AGL
Clouds: few clouds at 1900 feet AGL
scattered clouds at 2400 feet AGL
Weather: no significant weather observed at this time

METAR text: TNCB 200655Z AUTO 09016KT 9999 FEW018/// 26/21 Q1013
Conditions at: TNCB (BONAIRE/FLAMINGO, AN) observed 0655 UTC 20 January 2019
Temperature: 26.0°C (79°F)
Dewpoint: 21.0°C (70°F) [RH = 74%]
Pressure (altimeter): 29.91 inches Hg (1013.0 mb)
Winds: from the E (90 degrees) at 18 MPH (16 knots; 8.2 m/s)
Visibility: 6 or more miles (10+ km)
Ceiling: at least 12,000 feet AGL
Clouds: few clouds at 1800 feet AGL
Weather: no significant weather observed at this time

METAR text: TNCB 200555Z AUTO 09013KT 9999 FEW018/// 25/21 Q1013
Conditions at: TNCB (BONAIRE/FLAMINGO, AN) observed 0555 UTC 20 January 2019
Temperature: 25.0°C (77°F)
Dewpoint: 21.0°C (70°F) [RH = 79%]
Pressure (altimeter): 29.91 inches Hg (1013.0 mb)
Winds: from the E (90 degrees) at 15 MPH (13 knots; 6.7 m/s)
Visibility: 6 or more miles (10+ km)
Ceiling: at least 12,000 feet AGL
Clouds: few clouds at 1800 feet AGL
Weather: no significant weather observed at this time

METAR text: TNCB 200455Z AUTO 09012KT 070V130 9999 NCD 26/21 Q1014
Conditions at: TNCB (BONAIRE/FLAMINGO, AN) observed 0455 UTC 20 January 2019
Temperature: 26.0°C (79°F)
Dewpoint: 21.0°C (70°F) [RH = 74%]
Pressure (altimeter): 29.94 inches Hg (1014.0 mb)
Winds: from the E (90 degrees) at 14 MPH (12 knots; 6.2 m/s)
Visibility: 6 or more miles (10+ km)
Ceiling: at least 12,000 feet AGL
Clouds: sky clear below 12,000 feet AGL
Weather: no significant weather observed at this time

METAR text: TNCB 200355Z AUTO 09012KT 9999 FEW019/// 26/21 Q1014
Conditions at: TNCB (BONAIRE/FLAMINGO, AN) observed 0355 UTC 20 January 2019
Temperature: 26.0°C (79°F)
Dewpoint: 21.0°C (70°F) [RH = 74%]
Pressure (altimeter): 29.94 inches Hg (1014.0 mb)
Winds: from the E (90 degrees) at 14 MPH (12 knots; 6.2 m/s)
Visibility: 6 or more miles (10+ km)
Ceiling: at least 12,000 feet AGL
Clouds: few clouds at 1900 feet AGL
Weather: no significant weather observed at this time

METAR text: TNCB 200255Z AUTO 09012KT 9999 BKN019/// 26/21 Q1015
Conditions at: TNCB (BONAIRE/FLAMINGO, AN) observed 0255 UTC 20 January 2019
Temperature: 26.0°C (79°F)
Dewpoint: 21.0°C (70°F) [RH = 74%]
Pressure (altimeter): 29.97 inches Hg (1015.0 mb)
Winds: from the E (90 degrees) at 14 MPH (12 knots; 6.2 m/s)
Visibility: 6 or more miles (10+ km)
Ceiling: 1900 feet AGL
Clouds: broken clouds at 1900 feet AGL
Weather: no significant weather observed at this time

METAR text: TNCB 200155Z AUTO 09014KT 9999 FEW021/// 26/21 Q1014
Conditions at: TNCB (BONAIRE/FLAMINGO, AN) observed 0155 UTC 20 January 2019
Temperature: 26.0°C (79°F)
Dewpoint: 21.0°C (70°F) [RH = 74%]
Pressure (altimeter): 29.94 inches Hg (1014.0 mb)
Winds: from the E (90 degrees) at 16 MPH (14 knots; 7.2 m/s)
Visibility: 6 or more miles (10+ km)
Ceiling: at least 12,000 feet AGL
Clouds: few clouds at 2100 feet AGL
Weather: no significant weather observed at this time

METAR text: TNCB 200055Z AUTO 08014KT 9999 NCD 26/21 Q1014
Conditions at: TNCB (BONAIRE/FLAMINGO, AN) observed 0055 UTC 20 January 2019
Temperature: 26.0°C (79°F)
Dewpoint: 21.0°C (70°F) [RH = 74%]
Pressure (altimeter): 29.94 inches Hg (1014.0 mb)
Winds: from the E (80 degrees) at 16 MPH (14 knots; 7.2 m/s)
Visibility: 6 or more miles (10+ km)
Ceiling: at least 12,000 feet AGL
Clouds: sky clear below 12,000 feet AGL
Weather: no significant weather observed at this time

METAR text: TNCB 192355Z AUTO 09014KT 050V110 9999 NCD 26/21 Q1013
Conditions at: TNCB (BONAIRE/FLAMINGO, AN) observed 2355 UTC 19 January 2019
Temperature: 26.0°C (79°F)
Dewpoint: 21.0°C (70°F) [RH = 74%]
Pressure (altimeter): 29.91 inches Hg (1013.0 mb)
Winds: from the E (90 degrees) at 16 MPH (14 knots; 7.2 m/s)
Visibility: 6 or more miles (10+ km)
Ceiling: at least 12,000 feet AGL
Clouds: sky clear below 12,000 feet AGL
Weather: no significant weather observed at this time

METAR text: TNCB 192255Z 09014KT CAVOK 26/21 Q1013
Conditions at: TNCB (BONAIRE/FLAMINGO, AN) observed 2255 UTC 19 January 2019
Temperature: 26.0°C (79°F)
Dewpoint: 21.0°C (70°F) [RH = 74%]
Pressure (altimeter): 29.91 inches Hg (1013.0 mb)
Winds: from the E (90 degrees) at 16 MPH (14 knots; 7.2 m/s)
Visibility: 6 or more miles (10+ km)
Ceiling: ceiling and visibility are OK
Clouds: unknown
Weather: no significant weather observed at this time

METAR text: TNCB 192155Z AUTO 09016KT 060V120 9999 FEW022/// 27/21 Q1012
Conditions at: TNCB (BONAIRE/FLAMINGO, AN) observed 2155 UTC 19 January 2019
Temperature: 27.0°C (81°F)
Dewpoint: 21.0°C (70°F) [RH = 70%]
Pressure (altimeter): 29.88 inches Hg (1012.0 mb)
Winds: from the E (90 degrees) at 18 MPH (16 knots; 8.2 m/s)
Visibility: 6 or more miles (10+ km)
Ceiling: at least 12,000 feet AGL
Clouds: few clouds at 2200 feet AGL
Weather: no significant weather observed at this time

METAR text: TNCB 192055Z 10017KT 060V130 9999 FEW020 28/21 Q1012
Conditions at: TNCB (BONAIRE/FLAMINGO, AN) observed 2055 UTC 19 January 2019
Temperature: 28.0°C (82°F)
Dewpoint: 21.0°C (70°F) [RH = 66%]
Pressure (altimeter): 29.88 inches Hg (1012.0 mb)
Winds: from the E (100 degrees) at 20 MPH (17 knots; 8.7 m/s)
Visibility: 6 or more miles (10+ km)
Ceiling: at least 12,000 feet AGL
Clouds: few clouds at 2000 feet AGL
Weather: no significant weather observed at this time

METAR text: TNCB 191955Z 10017KT 070V130 9999 FEW019 SCT022 27/21 Q1012
Conditions at: TNCB (BONAIRE/FLAMINGO, AN) observed 1955 UTC 19 January 2019
Temperature: 27.0°C (81°F)
Dewpoint: 21.0°C (70°F) [RH = 70%]
Pressure (altimeter): 29.88 inches Hg (1012.0 mb)
Winds: from the E (100 degrees) at 20 MPH (17 knots; 8.7 m/s)
Visibility: 6 or more miles (10+ km)
Ceiling: at least 12,000 feet AGL
Clouds: few clouds at 1900 feet AGL
scattered clouds at 2200 feet AGL
Weather: no significant weather observed at this time

METAR text: TNCB 191855Z 09018KT 060V120 9999 FEW023 SCT027 29/21 Q1013
Conditions at: TNCB (BONAIRE/FLAMINGO, AN) observed 1855 UTC 19 January 2019
Temperature: 29.0°C (84°F)
Dewpoint: 21.0°C (70°F) [RH = 62%]
Pressure (altimeter): 29.91 inches Hg (1013.0 mb)
Winds: from the E (90 degrees) at 21 MPH (18 knots; 9.3 m/s)
Visibility: 6 or more miles (10+ km)
Ceiling: at least 12,000 feet AGL
Clouds: few clouds at 2300 feet AGL
scattered clouds at 2700 feet AGL
Weather: no significant weather observed at this time

METAR text: TNCB 191755Z AUTO 10017KT 070V140 9999 SCT023/// 28/21 Q1014
Conditions at: TNCB (BONAIRE/FLAMINGO, AN) observed 1755 UTC 19 January 2019
Temperature: 28.0°C (82°F)
Dewpoint: 21.0°C (70°F) [RH = 66%]
Pressure (altimeter): 29.94 inches Hg (1014.0 mb)
Winds: from the E (100 degrees) at 20 MPH (17 knots; 8.7 m/s)
Visibility: 6 or more miles (10+ km)
Ceiling: at least 12,000 feet AGL
Clouds: scattered clouds at 2300 feet AGL
Weather: no significant weather observed at this time

Forecast for: TNCB (BONAIRE/FLAMINGO, AN)
Text: TAF TNCB 202305Z 2100/2206 09015KT 9999 SCT020
Forecast period: 0000 UTC 21 January 2019 to 0600 UTC 22 January 2019
Forecast type: FROM: standard forecast or significant change
Winds: from the E (90 degrees) at 17 MPH (15 knots; 7.7 m/s)
Visibility: 6 or more miles 10+ km)
Ceiling: at least 12,000 feet AGL
Clouds: scattered clouds at 2000 feet AGL
Weather: no significant weather forecast for this period